createdAt,value
2022-12-01T00:01:19.008Z,82.10
2022-12-01T00:03:45.901Z,86.63
2022-12-01T00:06:21.460Z,95.18
2022-12-01T00:09:09.118Z,88.30
2022-12-01T00:11:37.375Z,88.05
2022-12-01T00:14:12.800Z,90.28
2022-12-01T00:16:40.944Z,88.03
2022-12-01T00:19:08.935Z,79.25
2022-12-01T00:21:35.633Z,79.45
2022-12-01T00:24:02.914Z,87.88
2022-12-01T00:26:29.952Z,88.68
2022-12-01T00:28:59.199Z,92.93
2022-12-01T00:31:26.785Z,86.32
2022-12-01T00:33:54.208Z,82.88
2022-12-01T00:36:22.776Z,97.57
2022-12-01T00:38:53.992Z,96.55
2022-12-01T00:41:21.428Z,86.32
2022-12-01T00:43:50.790Z,95.10
2022-12-01T00:46:18.154Z,99.68
2022-12-01T00:48:45.493Z,92.30
2022-12-01T00:51:12.099Z,97.72
2022-12-01T00:53:38.992Z,92.75
2022-12-01T00:56:06.399Z,93.40
2022-12-01T00:58:33.049Z,93.63
2022-12-01T01:01:02.003Z,98.75
2022-12-01T01:03:29.475Z,103.43
2022-12-01T01:05:56.989Z,100.28
2022-12-01T01:08:23.616Z,106.18
2022-12-01T01:10:51.052Z,95.82
2022-12-01T01:13:17.826Z,94.82
2022-12-01T01:15:45.177Z,96.07
2022-12-01T01:18:12.643Z,98.20
2022-12-01T01:20:39.521Z,97.18
2022-12-01T01:23:07.209Z,99.97
2022-12-01T01:25:33.999Z,101.07
2022-12-01T01:28:01.355Z,106.95
2022-12-01T01:30:28.123Z,104.13
2022-12-01T01:32:55.114Z,105.40
2022-12-01T01:35:22.500Z,112.85
2022-12-01T01:37:50.718Z,123.93
2022-12-01T01:40:18.454Z,116.35
2022-12-01T01:42:45.431Z,112.70
2022-12-01T01:45:28.760Z,121.90
2022-12-01T01:47:58.982Z,127.15
2022-12-01T01:50:28.068Z,113.15
2022-12-01T01:53:02.810Z,116.68
2022-12-01T01:55:31.595Z,109.53
2022-12-01T01:57:59.239Z,112.03
2022-12-01T02:00:26.488Z,119.47
2022-12-01T02:02:54.407Z,113.97
2022-12-01T02:05:27.454Z,127.88
2022-12-01T02:07:57.739Z,110.43
2022-12-01T02:10:30.288Z,123.30
2022-12-01T02:13:00.316Z,123.85
2022-12-01T02:15:40.902Z,121.70
2022-12-01T02:18:18.527Z,136.57
2022-12-01T02:21:06.272Z,130.13
2022-12-01T02:24:01.079Z,148.05
2022-12-01T02:26:34.633Z,134.38
2022-12-01T02:29:32.220Z,151.55
2022-12-01T02:32:28.328Z,135.40
2022-12-01T02:35:19.346Z,156.48
2022-12-01T02:37:55.698Z,151.02
2022-12-01T02:40:31.933Z,155.48
2022-12-01T02:43:06.082Z,160.48
2022-12-01T02:45:36.966Z,168.57
2022-12-01T02:48:11.319Z,150.82
2022-12-01T02:50:40.578Z,173.98
2022-12-01T02:53:10.625Z,162.98
2022-12-01T02:55:37.241Z,164.13
2022-12-01T02:58:14.334Z,147.98
2022-12-01T03:01:02.719Z,170.05
2022-12-01T03:03:46.174Z,168.57
2022-12-01T03:06:36.471Z,168.70
2022-12-01T03:09:09.642Z,161.02
2022-12-01T03:11:56.816Z,167.70
2022-12-01T03:14:37.043Z,169.15
2022-12-01T03:17:08.682Z,183.80
2022-12-01T03:19:50.894Z,171.47
2022-12-01T03:22:27.020Z,167.05
2022-12-01T03:24:56.159Z,169.30
2022-12-01T03:27:27.897Z,156.85
2022-12-01T03:29:58.304Z,154.97
2022-12-01T03:32:27.267Z,162.98
2022-12-01T03:35:00.241Z,175.85
2022-12-01T03:37:33.003Z,160.95
2022-12-01T03:40:02.606Z,169.75
2022-12-01T03:42:36.686Z,151.85
2022-12-01T03:45:15.600Z,162.88
2022-12-01T03:47:42.366Z,167.18
2022-12-01T03:50:14.279Z,167.10
2022-12-01T03:53:19.130Z,160.13
2022-12-01T03:55:52.441Z,153.68
2022-12-01T04:00:53.233Z,152.77
2022-12-01T04:03:24.511Z,164.75
2022-12-01T04:05:52.257Z,156.80
2022-12-01T04:08:18.904Z,163.68
2022-12-01T04:10:46.178Z,163.70
2022-12-01T04:13:22.206Z,147.50
2022-12-01T04:15:50.965Z,148.35
2022-12-01T04:18:18.412Z,151.02
2022-12-01T04:20:49.755Z,137.38
2022-12-01T04:23:34.869Z,145.75
2022-12-01T04:26:04.563Z,131.23
2022-12-01T04:28:31.292Z,126.80
2022-12-01T04:30:58.618Z,132.52
2022-12-01T04:33:25.339Z,126.40
2022-12-01T04:36:00.323Z,126.13
2022-12-01T04:38:30.940Z,113.68
2022-12-01T04:40:58.640Z,130.05
2022-12-01T04:43:25.233Z,119.75
2022-12-01T04:45:52.456Z,123.25
2022-12-01T04:48:19.128Z,124.45
2022-12-01T04:50:49.336Z,106.57
2022-12-01T04:53:15.972Z,109.65
2022-12-01T04:55:42.850Z,109.82
2022-12-01T04:58:09.531Z,104.88
2022-12-01T05:00:37.918Z,105.45
2022-12-01T05:03:05.090Z,111.57
2022-12-01T05:05:32.403Z,109.90
2022-12-01T05:07:59.457Z,109.10
2022-12-01T05:10:27.049Z,114.45
2022-12-01T05:12:55.062Z,116.20
2022-12-01T05:15:22.351Z,114.07
2022-12-01T05:17:48.931Z,104.97
2022-12-01T05:20:40.880Z,125.00
2022-12-01T05:23:10.791Z,107.82
2022-12-01T05:25:39.597Z,115.05
2022-12-01T05:28:06.499Z,119.90
2022-12-01T05:30:33.940Z,107.88
2022-12-01T05:33:00.726Z,99.50
2022-12-01T05:35:27.977Z,110.78
2022-12-01T05:37:54.694Z,108.80
2022-12-01T05:40:21.997Z,96.95
2022-12-01T05:42:48.559Z,93.65
2022-12-01T05:45:15.918Z,95.80
2022-12-01T05:47:42.499Z,106.70
2022-12-01T05:50:10.231Z,95.30
2022-12-01T05:52:37.145Z,99.15
2022-12-01T05:55:05.493Z,102.78
2022-12-01T05:57:32.491Z,95.20
2022-12-01T06:00:00.448Z,114.45
2022-12-01T06:02:27.227Z,102.93
2022-12-01T06:04:54.485Z,95.65
2022-12-01T06:07:23.499Z,102.75
2022-12-01T06:09:51.215Z,98.65
2022-12-01T06:12:18.492Z,98.05
2022-12-01T06:14:46.267Z,92.97
2022-12-01T06:17:12.888Z,97.38
2022-12-01T06:19:40.190Z,97.97
2022-12-01T06:22:06.783Z,100.13
2022-12-01T06:24:34.038Z,80.55
2022-12-01T06:27:00.797Z,93.43
2022-12-01T06:29:27.709Z,96.47
2022-12-01T06:31:54.382Z,93.72
2022-12-01T06:34:21.762Z,89.85
2022-12-01T06:36:48.401Z,87.65
2022-12-01T06:39:17.023Z,77.90
2022-12-01T06:41:43.809Z,74.00
2022-12-01T06:44:11.476Z,82.93
2022-12-01T06:46:38.152Z,72.90
2022-12-01T06:49:05.956Z,81.65
2022-12-01T06:51:34.222Z,74.05
2022-12-01T06:54:05.520Z,76.70
2022-12-01T06:56:32.534Z,78.68
2022-12-01T06:58:59.936Z,84.93
2022-12-01T07:01:27.045Z,71.68
2022-12-01T07:03:55.277Z,79.65
2022-12-01T07:06:21.983Z,75.43
2022-12-01T07:08:49.275Z,79.53
2022-12-01T07:11:16.284Z,86.00
2022-12-01T07:13:47.263Z,84.13
2022-12-01T07:16:14.005Z,86.30
2022-12-01T07:18:41.108Z,88.97
2022-12-01T07:21:12.693Z,79.45
2022-12-01T07:23:40.323Z,90.32
2022-12-01T07:26:18.226Z,88.72
2022-12-01T07:28:46.087Z,89.22
2022-12-01T07:31:18.518Z,90.32
2022-12-01T07:33:46.248Z,86.72
2022-12-01T07:36:13.800Z,99.50
2022-12-01T07:38:40.981Z,86.50
2022-12-01T07:41:16.357Z,87.47
2022-12-01T07:43:43.727Z,98.53
2022-12-01T07:46:14.697Z,77.72
2022-12-01T07:48:46.289Z,85.25
2022-12-01T07:51:16.536Z,91.32
2022-12-01T07:53:45.420Z,89.53
2022-12-01T07:56:12.096Z,90.32
2022-12-01T07:58:39.315Z,83.00
2022-12-01T08:01:12.222Z,76.97
2022-12-01T08:03:40.445Z,89.80
2022-12-01T08:06:07.566Z,96.18
2022-12-01T08:08:36.702Z,94.40
2022-12-01T08:11:06.531Z,93.70
2022-12-01T08:13:34.167Z,96.95
2022-12-01T08:16:04.955Z,91.25
2022-12-01T08:18:35.628Z,88.80
2022-12-01T08:21:02.998Z,96.82
2022-12-01T08:23:30.848Z,106.43
2022-12-01T08:26:01.589Z,97.68
2022-12-01T08:28:29.498Z,96.93
2022-12-01T08:30:56.659Z,89.25
2022-12-01T08:33:24.473Z,98.03
2022-12-01T08:35:51.114Z,100.55
2022-12-01T08:38:18.486Z,102.20
2022-12-01T08:40:45.143Z,104.15
2022-12-01T08:43:23.079Z,118.90
2022-12-01T08:46:02.529Z,98.47
2022-12-01T08:48:30.368Z,109.10
2022-12-01T08:51:12.535Z,109.80
2022-12-01T08:53:45.498Z,104.22
2022-12-01T08:56:23.968Z,101.43
2022-12-01T08:58:51.905Z,102.47
2022-12-01T09:01:19.501Z,107.30
2022-12-01T09:03:46.944Z,114.45
2022-12-01T09:06:22.587Z,104.60
2022-12-01T09:08:49.681Z,122.75
2022-12-01T09:11:18.295Z,121.13
2022-12-01T09:13:52.968Z,111.53
2022-12-01T09:16:21.619Z,102.63
2022-12-01T09:18:49.220Z,100.53
2022-12-01T09:21:21.866Z,113.97
2022-12-01T09:26:18.878Z,110.72
2022-12-01T09:28:47.384Z,126.75
2022-12-01T09:31:16.051Z,152.65
2022-12-01T09:33:43.363Z,130.68
2022-12-01T09:36:10.541Z,152.20
2022-12-01T09:38:39.235Z,133.05
2022-12-01T09:41:19.426Z,135.38
2022-12-01T09:43:54.213Z,151.63
2022-12-01T09:46:25.573Z,140.68
2022-12-01T09:48:54.182Z,135.73
2022-12-01T09:51:26.290Z,149.63
2022-12-01T09:53:59.469Z,137.88
2022-12-01T09:56:32.218Z,140.25
2022-12-01T09:59:04.382Z,148.50
2022-12-01T10:01:38.942Z,150.40
2022-12-01T10:04:11.686Z,163.48
2022-12-01T10:06:47.941Z,150.00
2022-12-01T10:09:28.723Z,155.15
2022-12-01T10:12:01.826Z,143.77
2022-12-01T10:14:33.047Z,145.93
2022-12-01T10:17:38.627Z,136.55
2022-12-01T10:20:25.279Z,137.15
2022-12-01T10:23:18.611Z,140.50
2022-12-01T10:26:01.464Z,141.30
2022-12-01T10:28:58.283Z,136.05
2022-12-01T10:31:43.434Z,128.73
2022-12-01T10:34:20.333Z,132.65
2022-12-01T10:36:47.557Z,131.23
2022-12-01T10:39:33.147Z,124.90
2022-12-01T10:42:08.111Z,131.93
2022-12-01T10:44:35.702Z,117.43
2022-12-01T10:47:02.992Z,123.10
2022-12-01T10:49:38.695Z,107.95
2022-12-01T10:52:07.311Z,109.10
2022-12-01T10:54:39.535Z,102.97
2022-12-01T10:57:13.735Z,116.95
2022-12-01T11:00:08.571Z,115.07
2022-12-01T11:02:36.432Z,104.68
2022-12-01T11:05:19.244Z,109.97
2022-12-01T11:07:47.458Z,109.15
2022-12-01T11:10:33.130Z,101.15
2022-12-01T11:13:24.805Z,108.45
2022-12-01T11:15:54.616Z,106.93
2022-12-01T11:18:30.125Z,113.78
2022-12-01T11:21:16.564Z,104.55
2022-12-01T11:23:49.023Z,115.43
2022-12-01T11:26:17.733Z,104.68
2022-12-01T11:29:21.474Z,103.93
2022-12-01T11:31:50.621Z,96.60
2022-12-01T11:34:23.657Z,105.53
2022-12-01T11:36:53.434Z,105.40
2022-12-01T11:39:38.209Z,104.05
2022-12-01T11:42:12.616Z,98.97
2022-12-01T11:44:53.272Z,108.85
2022-12-01T11:47:25.618Z,117.85
2022-12-01T11:49:54.178Z,106.93
2022-12-01T11:52:45.610Z,103.85
2022-12-01T11:55:21.741Z,102.55
2022-12-01T11:57:52.918Z,102.07
2022-12-01T12:00:41.232Z,105.15
2022-12-01T12:03:19.807Z,103.65
2022-12-01T12:06:38.479Z,101.82
2022-12-01T12:09:03.474Z,106.50
2022-12-01T12:11:30.145Z,111.60
2022-12-01T12:14:03.543Z,102.18
2022-12-01T12:17:03.759Z,104.22
2022-12-01T12:23:15.256Z,111.57
2022-12-01T12:26:08.195Z,94.22
2022-12-01T12:28:45.902Z,110.35
2022-12-01T12:31:28.882Z,107.20
2022-12-01T12:34:23.916Z,101.35
2022-12-01T12:37:02.807Z,114.88
2022-12-01T12:39:54.571Z,109.80
2022-12-01T12:42:37.986Z,97.05
2022-12-01T12:45:08.100Z,115.80
2022-12-01T12:48:03.094Z,103.85
2022-12-01T12:51:13.089Z,111.30
2022-12-01T12:54:10.769Z,107.40
2022-12-01T12:56:38.622Z,116.82
2022-12-01T12:59:12.777Z,106.85
2022-12-01T13:02:04.158Z,114.15
2022-12-01T13:04:39.557Z,112.80
2022-12-01T13:07:48.674Z,118.10
2022-12-01T13:10:37.821Z,114.32
2022-12-01T13:13:19.506Z,123.05
2022-12-01T13:15:49.027Z,106.60
2022-12-01T13:18:43.619Z,125.25
2022-12-01T13:21:20.689Z,126.10
2022-12-01T13:23:49.818Z,131.48
2022-12-01T13:26:19.466Z,117.85
2022-12-01T13:28:52.914Z,114.28
2022-12-01T13:31:20.983Z,113.57
2022-12-01T13:34:03.948Z,120.78
2022-12-01T13:36:46.769Z,120.57
2022-12-01T13:41:45.870Z,114.70
2022-12-01T13:44:25.825Z,111.57
2022-12-01T13:46:57.070Z,103.22
2022-12-01T13:49:37.065Z,99.97
2022-12-01T13:52:21.684Z,99.15
2022-12-01T13:55:07.648Z,97.07
2022-12-01T13:57:47.986Z,90.35
2022-12-01T14:00:26.307Z,90.50
2022-12-01T14:03:11.916Z,90.45
2022-12-01T14:05:53.710Z,101.57
2022-12-01T14:08:34.069Z,98.18
2022-12-01T14:11:17.925Z,96.15
2022-12-01T14:13:57.053Z,90.85
2022-12-01T14:16:24.939Z,101.13
2022-12-01T14:18:56.719Z,92.68
2022-12-01T14:21:43.874Z,91.88
2022-12-01T14:24:27.930Z,92.38
2022-12-01T14:26:55.205Z,89.03
2022-12-01T14:29:32.214Z,86.55
2022-12-01T14:32:03.815Z,98.07
2022-12-01T14:34:34.981Z,66.75
2022-12-01T14:37:18.885Z,92.57
2022-12-01T14:40:15.678Z,94.05
2022-12-01T14:43:05.384Z,95.63
2022-12-01T14:45:40.316Z,95.85
2022-12-01T14:48:18.348Z,89.50
2022-12-01T14:50:51.977Z,89.35
2022-12-01T14:53:34.129Z,92.10
2022-12-01T14:56:12.539Z,105.50
2022-12-01T14:58:39.503Z,99.00
2022-12-01T15:01:12.132Z,101.97
2022-12-01T15:03:57.916Z,108.60
2022-12-01T15:06:27.100Z,84.03
2022-12-01T15:09:32.028Z,97.75
2022-12-01T15:11:58.513Z,98.03
2022-12-01T15:14:31.438Z,100.13
2022-12-01T15:19:34.869Z,89.40
2022-12-01T15:22:11.145Z,105.25
2022-12-01T15:24:38.371Z,105.03
2022-12-01T15:27:21.062Z,106.22
2022-12-01T15:29:48.407Z,108.72
2022-12-01T15:32:18.502Z,110.90
2022-12-01T15:34:48.952Z,100.95
2022-12-01T15:37:18.873Z,108.80
2022-12-01T15:39:49.469Z,111.63
2022-12-01T15:42:33.308Z,113.60
2022-12-01T15:45:01.222Z,114.32
2022-12-01T15:47:43.499Z,111.63
2022-12-01T15:50:31.096Z,111.68
2022-12-01T15:53:06.212Z,121.15
2022-12-01T15:55:35.102Z,108.82
2022-12-01T15:58:06.614Z,122.28
2022-12-01T16:00:33.378Z,108.60
2022-12-01T16:03:02.105Z,117.47
2022-12-01T16:05:32.746Z,119.80
2022-12-01T16:08:19.153Z,120.47
2022-12-01T16:11:06.523Z,125.22
2022-12-01T16:13:49.927Z,129.20
2022-12-01T16:16:39.859Z,120.45
2022-12-01T16:19:09.282Z,120.25
2022-12-01T16:21:55.486Z,130.95
2022-12-01T16:24:53.847Z,131.63
2022-12-01T16:27:30.612Z,127.45
2022-12-01T16:29:57.231Z,133.25
2022-12-01T16:32:43.752Z,135.43
2022-12-01T16:35:30.664Z,140.80
2022-12-01T16:37:58.513Z,132.70
2022-12-01T16:40:25.768Z,132.10
2022-12-01T16:42:52.593Z,136.05
2022-12-01T16:45:20.026Z,141.27
2022-12-01T16:47:48.308Z,134.23
2022-12-01T16:50:17.586Z,136.10
2022-12-01T16:52:45.802Z,132.85
2022-12-01T16:55:38.365Z,140.70
2022-12-01T16:58:05.161Z,135.93
2022-12-01T17:00:33.000Z,130.80
2022-12-01T17:03:00.286Z,135.13
2022-12-01T17:05:28.285Z,138.85
2022-12-01T17:07:55.176Z,136.23
2022-12-01T17:10:23.289Z,144.10
2022-12-01T17:12:50.337Z,134.18
2022-12-01T17:15:18.009Z,134.93
2022-12-01T17:17:44.673Z,140.50
2022-12-01T17:20:12.282Z,138.55
2022-12-01T17:22:39.043Z,134.75
2022-12-01T17:25:06.083Z,138.93
2022-12-01T17:27:32.839Z,142.38
2022-12-01T17:30:01.985Z,141.77
2022-12-01T17:32:28.732Z,130.60
2022-12-01T17:34:55.326Z,140.13
2022-12-01T17:37:22.165Z,137.77
2022-12-01T17:39:50.122Z,134.02
2022-12-01T17:42:17.193Z,131.48
2022-12-01T17:44:43.815Z,137.88
2022-12-01T17:47:10.975Z,133.48
2022-12-01T17:49:37.684Z,133.98
2022-12-01T17:52:05.991Z,140.55
2022-12-01T17:54:33.845Z,144.82
2022-12-01T17:57:01.358Z,136.02
2022-12-01T17:59:28.081Z,139.00
2022-12-01T18:01:55.079Z,136.23
2022-12-01T18:04:21.691Z,138.27
2022-12-01T18:06:53.843Z,139.32
2022-12-01T18:09:21.228Z,138.82
2022-12-01T18:11:47.940Z,144.73
2022-12-01T18:14:17.547Z,135.90
2022-12-01T18:16:45.684Z,139.07
2022-12-01T18:19:12.564Z,151.65
2022-12-01T18:21:43.629Z,143.82
2022-12-01T18:24:10.478Z,145.98
2022-12-01T18:26:40.011Z,144.75
2022-12-01T18:29:25.521Z,147.63
2022-12-01T18:32:00.196Z,146.63
2022-12-01T18:34:29.427Z,140.38
2022-12-01T18:36:57.180Z,139.52
2022-12-01T18:39:24.134Z,143.98
2022-12-01T18:41:51.572Z,144.45
2022-12-01T18:44:18.298Z,146.20
2022-12-01T18:46:45.471Z,143.55
2022-12-01T18:49:12.500Z,160.02
2022-12-01T18:51:40.496Z,154.02
2022-12-01T18:54:08.861Z,146.07
2022-12-01T18:56:36.265Z,145.25
2022-12-01T18:59:05.821Z,157.45
2022-12-01T19:01:37.295Z,146.25
2022-12-01T19:04:05.854Z,145.68
2022-12-01T19:06:34.940Z,158.00
2022-12-01T19:09:04.387Z,152.63
2022-12-01T19:11:31.639Z,151.43
2022-12-01T19:13:58.311Z,138.57
2022-12-01T19:16:26.177Z,143.95
2022-12-01T19:18:53.165Z,146.38
2022-12-01T19:21:21.510Z,153.63
2022-12-01T19:23:49.511Z,148.57
2022-12-01T19:26:19.238Z,149.20
2022-12-01T19:28:46.739Z,149.45
2022-12-01T19:31:19.515Z,153.65
2022-12-01T19:33:47.062Z,151.15
2022-12-01T19:36:18.058Z,142.82
2022-12-01T19:38:45.495Z,141.00
2022-12-01T19:41:14.128Z,155.85
2022-12-01T19:43:42.505Z,152.95
2022-12-01T19:46:13.132Z,143.13
2022-12-01T19:48:40.459Z,147.20
2022-12-01T19:51:15.284Z,146.32
2022-12-01T19:53:41.952Z,158.02
2022-12-01T19:56:09.492Z,149.63
2022-12-01T19:58:36.161Z,146.90
2022-12-01T20:01:11.877Z,150.20
2022-12-01T20:03:40.498Z,152.45
2022-12-01T20:06:13.649Z,150.10
2022-12-01T20:08:40.686Z,151.48
2022-12-01T20:11:08.086Z,160.55
2022-12-01T20:13:37.485Z,145.70
2022-12-01T20:16:07.318Z,144.77
2022-12-01T20:18:34.582Z,149.38
2022-12-01T20:21:12.571Z,146.75
2022-12-01T20:23:39.182Z,143.98
2022-12-01T20:26:07.468Z,141.75
2022-12-01T20:28:36.855Z,148.73
2022-12-01T20:31:08.508Z,133.95
2022-12-01T20:33:35.496Z,114.95
2022-12-01T20:36:02.400Z,104.38
2022-12-01T20:38:29.037Z,107.25
2022-12-01T20:40:55.832Z,106.03
2022-12-01T20:43:22.810Z,117.68
2022-12-01T20:45:49.653Z,103.13
2022-12-01T20:48:17.664Z,111.97
2022-12-01T20:50:44.361Z,115.13
2022-12-01T20:53:11.131Z,108.40
2022-12-01T20:55:38.612Z,110.45
2022-12-01T20:58:08.449Z,119.25
2022-12-01T21:00:41.172Z,113.95
2022-12-01T21:03:08.030Z,107.53
2022-12-01T21:05:37.938Z,119.25
2022-12-01T21:08:07.113Z,117.18
2022-12-01T21:10:37.907Z,119.10
2022-12-01T21:13:42.434Z,114.90
2022-12-01T21:16:24.906Z,116.00
2022-12-01T21:19:00.141Z,122.03
2022-12-01T21:21:31.977Z,122.20
2022-12-01T21:24:08.524Z,118.80
2022-12-01T21:26:46.611Z,115.60
2022-12-01T21:29:14.259Z,115.00
2022-12-01T21:31:40.859Z,122.93
2022-12-01T21:34:25.828Z,116.43
2022-12-01T21:36:55.884Z,119.93
2022-12-01T21:39:24.585Z,118.10
2022-12-01T21:41:54.953Z,125.63
2022-12-01T21:44:24.166Z,119.60
2022-12-01T21:46:56.428Z,122.43
2022-12-01T21:49:37.248Z,114.55
2022-12-01T21:52:13.666Z,109.93
2022-12-01T21:54:40.987Z,113.25
2022-12-01T21:57:33.944Z,104.00
2022-12-01T22:00:28.229Z,109.45
2022-12-01T22:03:25.810Z,103.32
2022-12-01T22:06:28.420Z,104.20
2022-12-01T22:08:57.539Z,101.50
2022-12-01T22:11:26.953Z,103.22
2022-12-01T22:14:09.224Z,108.50
2022-12-01T22:16:41.037Z,105.50
2022-12-01T22:19:33.413Z,103.90
2022-12-01T22:22:21.450Z,104.45
2022-12-01T22:25:00.362Z,116.00
2022-12-01T22:27:38.386Z,97.18
2022-12-01T22:30:05.613Z,106.47
2022-12-01T22:32:38.011Z,100.03
2022-12-01T22:35:23.842Z,103.35
2022-12-01T22:37:53.581Z,98.80
2022-12-01T22:40:37.847Z,94.18
2022-12-01T22:43:40.254Z,101.13
2022-12-01T22:46:15.266Z,82.78
2022-12-01T22:49:03.961Z,89.53
2022-12-01T22:51:50.653Z,90.82
2022-12-01T22:54:27.991Z,86.13
2022-12-01T22:57:24.542Z,90.35
2022-12-01T22:59:52.955Z,99.22
2022-12-01T23:02:34.395Z,86.82
2022-12-01T23:05:14.415Z,88.70
2022-12-01T23:07:42.829Z,92.72
2022-12-01T23:10:20.862Z,95.10
2022-12-01T23:12:49.455Z,92.97
2022-12-01T23:15:32.860Z,100.93
2022-12-01T23:20:36.991Z,96.68
2022-12-01T23:23:08.176Z,91.30
2022-12-01T23:25:36.090Z,94.18
2022-12-01T23:28:07.208Z,96.18
2022-12-01T23:30:36.011Z,95.45
2022-12-01T23:33:09.372Z,102.85
2022-12-01T23:35:44.296Z,103.07
2022-12-01T23:38:16.014Z,96.13
2022-12-01T23:40:43.304Z,101.63
2022-12-01T23:43:20.853Z,95.22
2022-12-01T23:45:51.057Z,103.85
2022-12-01T23:48:22.389Z,101.45
2022-12-01T23:50:52.668Z,97.15
2022-12-01T23:53:31.264Z,98.95
2022-12-01T23:56:10.458Z,96.95
2022-12-01T23:58:37.046Z,97.53
